createdAt,value
2019-05-14T00:00:41.534Z,51.50
2019-05-14T00:03:11.348Z,50.70
2019-05-14T00:05:42.469Z,50.00
2019-05-14T00:08:12.908Z,51.10
2019-05-14T00:10:43.107Z,52.00
2019-05-14T00:13:13.311Z,54.10
2019-05-14T00:15:43.567Z,52.00
2019-05-14T00:18:13.931Z,51.10
2019-05-14T00:20:44.107Z,49.70
2019-05-14T00:23:14.281Z,52.00
2019-05-14T00:25:44.491Z,51.70
2019-05-14T00:28:14.753Z,51.80
2019-05-14T00:30:44.978Z,52.40
2019-05-14T00:33:15.229Z,51.00
2019-05-14T00:35:45.415Z,54.00
2019-05-14T00:38:15.587Z,53.30
2019-05-14T00:40:46.133Z,50.80
2019-05-14T00:43:16.329Z,49.90
2019-05-14T00:45:46.545Z,52.40
2019-05-14T00:48:16.735Z,53.60
2019-05-14T00:50:46.943Z,50.60
2019-05-14T00:53:17.127Z,52.70
2019-05-14T00:55:47.450Z,50.50
2019-05-14T00:58:17.620Z,52.60
2019-05-14T01:00:47.923Z,55.10
2019-05-14T01:03:18.165Z,54.80
2019-05-14T01:05:48.575Z,53.70
2019-05-14T01:08:18.759Z,52.70
2019-05-14T01:10:50.994Z,53.90
2019-05-14T01:13:21.879Z,52.70
2019-05-14T01:15:52.378Z,53.10
2019-05-14T01:18:22.739Z,51.40
2019-05-14T01:20:52.939Z,51.40
2019-05-14T01:23:23.224Z,49.80
2019-05-14T01:25:53.412Z,52.70
2019-05-14T01:28:23.658Z,52.00
2019-05-14T01:30:53.959Z,52.00
2019-05-14T01:33:24.187Z,50.80
2019-05-14T01:35:54.405Z,52.10
2019-05-14T01:38:24.816Z,50.60
2019-05-14T01:40:55.044Z,52.90
2019-05-14T01:43:25.224Z,52.00
2019-05-14T01:45:55.439Z,52.40
2019-05-14T01:48:25.650Z,53.30
2019-05-14T01:50:55.874Z,53.10
2019-05-14T01:53:26.118Z,53.30
2019-05-14T01:55:56.457Z,55.30
2019-05-14T01:58:26.751Z,52.10
2019-05-14T02:00:57.015Z,55.20
2019-05-14T02:03:27.208Z,54.30
2019-05-14T02:05:57.553Z,52.10
2019-05-14T02:08:27.759Z,53.70
2019-05-14T02:10:57.943Z,54.10
2019-05-14T02:13:28.208Z,54.70
2019-05-14T02:15:58.579Z,55.00
2019-05-14T02:18:30.962Z,54.60
2019-05-14T02:21:01.605Z,55.80
2019-05-14T02:23:32.275Z,57.10
2019-05-14T02:26:02.835Z,55.80
2019-05-14T02:28:33.179Z,54.00
2019-05-14T02:31:04.158Z,54.90
2019-05-14T02:33:34.617Z,54.70
2019-05-14T02:36:04.788Z,54.50
2019-05-14T02:38:35.100Z,54.60
2019-05-14T02:41:05.498Z,53.80
2019-05-14T02:43:35.879Z,54.80
2019-05-14T02:46:15.945Z,57.40
2019-05-14T02:48:40.132Z,54.90
2019-05-14T02:51:10.687Z,53.80
2019-05-14T02:53:41.127Z,55.30
2019-05-14T02:56:11.481Z,53.90
2019-05-14T02:58:41.708Z,53.10
2019-05-14T03:01:12.034Z,54.00
2019-05-14T03:03:42.294Z,56.40
2019-05-14T03:06:12.648Z,54.60
2019-05-14T03:08:42.976Z,57.50
2019-05-14T03:11:13.387Z,54.80
2019-05-14T03:13:43.630Z,54.60
2019-05-14T03:16:25.871Z,55.70
2019-05-14T03:18:45.932Z,57.00
2019-05-14T03:21:16.256Z,55.00
2019-05-14T03:23:49.377Z,55.40
2019-05-14T03:26:19.839Z,54.20
2019-05-14T03:28:50.460Z,54.30
2019-05-14T03:31:22.445Z,59.20
2019-05-14T03:33:53.415Z,56.20
2019-05-14T03:36:26.646Z,54.50
2019-05-14T03:38:55.793Z,55.00
2019-05-14T03:41:26.038Z,56.50
2019-05-14T03:43:56.319Z,57.80
2019-05-14T03:46:43.961Z,55.30
2019-05-14T03:49:00.134Z,55.10
2019-05-14T03:51:30.365Z,55.20
2019-05-14T03:54:05.961Z,57.90
2019-05-14T03:56:32.560Z,54.60
2019-05-14T03:59:02.888Z,55.70
2019-05-14T04:01:33.345Z,55.90
2019-05-14T04:04:03.663Z,53.50
2019-05-14T04:06:34.747Z,53.90
2019-05-14T04:09:09.705Z,57.50
2019-05-14T04:11:41.091Z,57.80
2019-05-14T04:14:13.728Z,61.50
2019-05-14T04:16:59.826Z,60.80
2019-05-14T04:19:19.094Z,57.20
2019-05-14T04:21:51.013Z,58.80
2019-05-14T04:24:23.051Z,57.60
2019-05-14T04:27:05.946Z,60.50
2019-05-14T04:29:30.890Z,58.30
2019-05-14T04:32:02.770Z,59.10
2019-05-14T04:34:33.940Z,58.10
2019-05-14T04:37:04.556Z,55.20
2019-05-14T04:39:34.792Z,55.40
2019-05-14T04:42:05.067Z,54.40
2019-05-14T04:44:35.418Z,54.60
2019-05-14T04:47:25.220Z,54.00
2019-05-14T04:49:39.839Z,53.80
2019-05-14T04:52:10.227Z,54.00
2019-05-14T04:54:40.695Z,63.70
2019-05-14T04:57:11.097Z,55.90
2019-05-14T04:59:41.441Z,56.40
2019-05-14T05:02:11.617Z,54.20
2019-05-14T05:04:41.909Z,55.10
2019-05-14T05:07:12.306Z,54.00
2019-05-14T05:09:42.538Z,56.30
2019-05-14T05:12:12.819Z,54.40
2019-05-14T05:14:43.340Z,53.60
2019-05-14T05:17:13.478Z,54.40
2019-05-14T05:19:45.641Z,54.00
2019-05-14T05:22:15.760Z,56.40
2019-05-14T05:24:48.313Z,58.70
2019-05-14T05:27:18.593Z,54.70
2019-05-14T05:29:49.111Z,55.00
2019-05-14T05:32:19.648Z,54.80
2019-05-14T05:34:50.127Z,60.70
2019-05-14T05:37:20.322Z,58.90
2019-05-14T05:39:50.579Z,56.20
2019-05-14T05:42:20.761Z,56.90
2019-05-14T05:44:51.056Z,55.10
2019-05-14T05:47:21.243Z,59.50
2019-05-14T05:49:51.622Z,59.50
2019-05-14T05:52:21.833Z,57.00
2019-05-14T05:54:52.080Z,59.20
2019-05-14T05:57:22.233Z,58.80
2019-05-14T05:59:52.510Z,58.20
2019-05-14T06:02:22.910Z,59.20
2019-05-14T06:04:53.794Z,59.70
2019-05-14T06:07:23.979Z,60.30
2019-05-14T06:09:54.315Z,57.50
2019-05-14T06:12:24.562Z,57.40
2019-05-14T06:14:54.792Z,57.10
2019-05-14T06:17:25.210Z,56.60
2019-05-14T06:19:55.577Z,56.50
2019-05-14T06:22:27.897Z,56.50
2019-05-14T06:24:58.597Z,56.80
2019-05-14T06:27:29.163Z,58.40
2019-05-14T06:29:59.440Z,56.20
2019-05-14T06:32:29.705Z,55.50
2019-05-14T06:35:00.029Z,55.70
2019-05-14T06:37:30.326Z,55.70
2019-05-14T06:40:00.673Z,57.50
2019-05-14T06:42:30.848Z,57.10
2019-05-14T06:45:01.062Z,57.00
2019-05-14T06:47:31.348Z,56.20
2019-05-14T06:50:01.573Z,55.80
2019-05-14T06:52:31.709Z,55.70
2019-05-14T06:55:02.043Z,55.80
2019-05-14T06:57:32.291Z,55.50
2019-05-14T07:00:02.500Z,55.20
2019-05-14T07:02:32.819Z,54.90
2019-05-14T07:05:03.133Z,54.80
2019-05-14T07:07:33.371Z,55.10
2019-05-14T07:10:04.109Z,54.80
2019-05-14T07:12:34.337Z,54.80
2019-05-14T07:15:05.381Z,55.70
2019-05-14T07:17:38.148Z,54.90
2019-05-14T07:20:09.006Z,54.90
2019-05-14T07:22:39.383Z,54.90
2019-05-14T07:25:10.335Z,54.70
2019-05-14T07:27:40.619Z,54.70
2019-05-14T07:30:11.637Z,54.70
2019-05-14T07:32:41.887Z,54.50
2019-05-14T07:35:12.187Z,53.80
2019-05-14T07:37:42.433Z,53.30
2019-05-14T07:40:12.987Z,53.60
2019-05-14T07:42:43.363Z,53.50
2019-05-14T07:45:13.884Z,52.90
2019-05-14T07:47:44.171Z,53.30
2019-05-14T07:50:15.745Z,53.50
2019-05-14T07:52:46.063Z,53.20
2019-05-14T07:55:18.527Z,53.20
2019-05-14T07:57:48.399Z,52.60
2019-05-14T08:00:19.812Z,51.60
2019-05-14T08:02:50.016Z,52.20
2019-05-14T08:05:20.393Z,52.90
2019-05-14T08:07:50.779Z,51.00
2019-05-14T08:10:21.314Z,50.30
2019-05-14T08:12:51.554Z,50.10
2019-05-14T08:15:22.572Z,48.30
2019-05-14T08:17:52.951Z,48.60
2019-05-14T08:20:23.313Z,50.00
2019-05-14T08:22:53.483Z,50.30
2019-05-14T08:25:23.863Z,50.20
2019-05-14T08:27:54.049Z,48.80
2019-05-14T08:30:24.341Z,48.50
2019-05-14T08:32:54.577Z,48.90
2019-05-14T08:35:24.831Z,50.10
2019-05-14T08:38:05.553Z,49.00
2019-05-14T08:40:28.756Z,50.20
2019-05-14T08:42:59.230Z,47.70
2019-05-14T08:45:29.547Z,48.50
2019-05-14T08:47:59.895Z,48.20
2019-05-14T08:50:30.093Z,48.00
2019-05-14T08:53:00.423Z,48.50
2019-05-14T08:55:30.607Z,48.30
2019-05-14T08:58:01.050Z,47.00
2019-05-14T09:00:31.505Z,47.20
2019-05-14T09:03:03.278Z,46.60
2019-05-14T09:05:33.678Z,43.40
2019-05-14T09:08:04.059Z,45.40
2019-05-14T09:10:34.417Z,46.60
2019-05-14T09:13:04.620Z,47.40
2019-05-14T09:15:34.927Z,48.70
2019-05-14T09:18:05.224Z,47.30
2019-05-14T09:20:35.500Z,46.50
2019-05-14T09:23:09.162Z,46.30
2019-05-14T09:25:47.933Z,47.90
2019-05-14T09:28:11.274Z,45.20
2019-05-14T09:30:41.556Z,46.20
2019-05-14T09:33:11.817Z,45.60
2019-05-14T09:35:42.108Z,47.40
2019-05-14T09:38:12.375Z,47.40
2019-05-14T09:40:42.565Z,46.70
2019-05-14T09:43:12.804Z,45.70
2019-05-14T09:45:43.168Z,45.80
2019-05-14T09:48:13.467Z,44.50
2019-05-14T09:50:43.794Z,46.10
2019-05-14T09:53:14.210Z,45.80
2019-05-14T09:55:44.482Z,47.40
2019-05-14T09:58:14.809Z,44.40
2019-05-14T10:00:45.032Z,45.70
2019-05-14T10:03:15.410Z,44.10
2019-05-14T10:05:45.719Z,45.70
2019-05-14T10:08:16.111Z,45.20
2019-05-14T10:10:48.661Z,46.80
2019-05-14T10:13:18.796Z,46.90
2019-05-14T10:15:49.039Z,47.00
2019-05-14T10:18:19.836Z,46.40
2019-05-14T10:20:50.025Z,47.00
2019-05-14T10:23:20.868Z,46.40
2019-05-14T10:25:51.080Z,47.30
2019-05-14T10:28:21.354Z,46.70
2019-05-14T10:30:51.672Z,45.70
2019-05-14T10:33:22.020Z,46.60
2019-05-14T10:35:52.302Z,47.00
2019-05-14T10:38:23.990Z,45.80
2019-05-14T10:40:54.284Z,46.20
2019-05-14T10:43:24.644Z,46.10
2019-05-14T10:45:54.968Z,46.50
2019-05-14T10:48:25.438Z,46.10
2019-05-14T10:51:02.658Z,46.00
2019-05-14T10:53:29.046Z,46.20
2019-05-14T10:55:59.588Z,47.70
2019-05-14T10:58:29.946Z,47.80
2019-05-14T11:01:00.134Z,43.80
2019-05-14T11:03:30.511Z,45.10
2019-05-14T11:06:00.719Z,40.90
2019-05-14T11:08:31.078Z,42.60
2019-05-14T11:11:03.806Z,42.70
2019-05-14T11:13:33.214Z,43.60
2019-05-14T11:16:03.526Z,44.70
2019-05-14T11:18:33.852Z,46.10
2019-05-14T11:21:18.512Z,45.10
2019-05-14T11:23:38.641Z,45.30
2019-05-14T11:26:09.181Z,44.60
2019-05-14T11:28:39.705Z,45.10
2019-05-14T11:31:10.052Z,44.90
2019-05-14T11:33:40.350Z,46.00
2019-05-14T11:36:10.686Z,43.20
2019-05-14T11:38:40.971Z,42.50
2019-05-14T11:41:11.239Z,39.90
2019-05-14T11:43:41.642Z,39.30
2019-05-14T11:46:12.043Z,42.40
2019-05-14T11:48:42.354Z,41.20
2019-05-14T11:51:12.741Z,43.10
2019-05-14T11:53:43.075Z,42.60
2019-05-14T11:56:13.429Z,41.90
2019-05-14T11:58:43.821Z,40.30
2019-05-14T12:01:14.147Z,42.40
2019-05-14T12:03:44.513Z,42.20
2019-05-14T12:06:14.767Z,42.20
2019-05-14T12:08:45.037Z,40.50
2019-05-14T12:11:15.375Z,42.20
2019-05-14T12:13:48.474Z,41.20
2019-05-14T12:16:17.603Z,40.00
2019-05-14T12:18:48.525Z,40.60
2019-05-14T12:21:18.972Z,42.10
2019-05-14T12:23:49.265Z,40.50
2019-05-14T12:26:19.443Z,40.50
2019-05-14T12:28:49.771Z,41.20
2019-05-14T12:31:19.999Z,42.60
2019-05-14T12:33:50.192Z,40.10
2019-05-14T12:36:20.484Z,40.00
2019-05-14T12:38:50.718Z,40.10
2019-05-14T12:41:21.037Z,38.90
2019-05-14T12:43:51.434Z,41.10
2019-05-14T12:46:21.716Z,39.30
2019-05-14T12:48:51.998Z,39.40
2019-05-14T12:51:22.356Z,38.70
2019-05-14T12:53:52.605Z,39.60
2019-05-14T12:56:22.869Z,38.60
2019-05-14T12:58:53.167Z,41.20
2019-05-14T13:01:23.439Z,42.30
2019-05-14T13:03:53.715Z,40.70
2019-05-14T13:06:24.086Z,40.90
2019-05-14T13:08:54.517Z,41.10
2019-05-14T13:11:24.820Z,41.00
2019-05-14T13:13:55.059Z,41.60
2019-05-14T13:16:25.369Z,39.40
2019-05-14T13:18:55.624Z,42.00
2019-05-14T13:21:28.779Z,40.50
2019-05-14T13:23:57.840Z,40.60
2019-05-14T13:26:29.647Z,38.10
2019-05-14T13:29:00.156Z,40.10
2019-05-14T13:31:30.409Z,40.10
2019-05-14T13:34:01.000Z,40.70
2019-05-14T13:36:31.244Z,41.10
2019-05-14T13:39:01.580Z,43.30
2019-05-14T13:41:31.975Z,40.70
2019-05-14T13:44:17.395Z,41.70
2019-05-14T13:46:34.255Z,41.10
2019-05-14T13:49:04.599Z,41.30
2019-05-14T13:51:34.877Z,41.90
2019-05-14T13:54:05.231Z,42.40
2019-05-14T13:56:35.645Z,40.90
2019-05-14T13:59:05.966Z,41.30
2019-05-14T14:01:36.265Z,41.60
2019-05-14T14:04:12.448Z,42.00
2019-05-14T14:06:39.370Z,42.10
2019-05-14T14:09:12.522Z,42.40
2019-05-14T14:11:41.743Z,42.90
2019-05-14T14:14:12.188Z,42.00
2019-05-14T14:16:42.491Z,42.60
2019-05-14T14:19:12.816Z,42.70
2019-05-14T14:21:43.167Z,42.10
2019-05-14T14:24:13.545Z,42.90
2019-05-14T14:26:43.804Z,41.50
2019-05-14T14:29:14.043Z,43.50
2019-05-14T14:31:44.336Z,43.00
2019-05-14T14:34:14.643Z,43.50
2019-05-14T14:36:44.923Z,43.10
2019-05-14T14:39:15.136Z,40.40
2019-05-14T14:41:45.431Z,42.30
2019-05-14T14:44:15.604Z,42.40
2019-05-14T14:46:48.398Z,43.40
2019-05-14T14:49:19.047Z,43.50
2019-05-14T14:51:49.838Z,43.40
2019-05-14T14:54:20.139Z,44.00
2019-05-14T14:56:50.356Z,43.40
2019-05-14T14:59:20.565Z,44.30
2019-05-14T15:01:50.886Z,44.30
2019-05-14T15:04:21.141Z,44.00
2019-05-14T15:06:51.611Z,44.50
2019-05-14T15:09:21.833Z,44.80
2019-05-14T15:11:52.012Z,43.30
2019-05-14T15:14:22.287Z,43.20
2019-05-14T15:16:52.654Z,42.40
2019-05-14T15:19:23.027Z,43.30
2019-05-14T15:21:53.294Z,42.60
2019-05-14T15:24:23.599Z,41.50
2019-05-14T15:26:53.968Z,43.50
2019-05-14T15:29:24.198Z,41.40
2019-05-14T15:31:54.440Z,42.00
2019-05-14T15:34:24.572Z,42.00
2019-05-14T15:36:54.915Z,40.00
2019-05-14T15:39:25.206Z,42.70
2019-05-14T15:41:55.488Z,42.90
2019-05-14T15:44:25.790Z,43.30
2019-05-14T15:46:58.620Z,41.30
2019-05-14T15:49:28.446Z,40.50
2019-05-14T15:51:58.900Z,41.90
2019-05-14T15:54:42.250Z,40.70
2019-05-14T15:57:01.166Z,41.20
2019-05-14T15:59:31.445Z,42.10
2019-05-14T16:02:01.866Z,42.40
2019-05-14T16:04:32.185Z,42.60
2019-05-14T16:07:02.604Z,41.10
2019-05-14T16:09:32.895Z,41.10
2019-05-14T16:12:03.232Z,41.60
2019-05-14T16:14:33.636Z,41.10
2019-05-14T16:17:04.046Z,40.80
2019-05-14T16:19:34.392Z,42.90
2019-05-14T16:22:04.624Z,41.60
2019-05-14T16:24:52.198Z,41.70
2019-05-14T16:27:08.381Z,40.30
2019-05-14T16:29:45.623Z,41.70
2019-05-14T16:32:11.113Z,41.00
2019-05-14T16:34:41.546Z,40.70
2019-05-14T16:37:11.883Z,40.60
2019-05-14T16:39:42.148Z,40.20
2019-05-14T16:42:12.510Z,41.90
2019-05-14T16:44:42.840Z,44.40
2019-05-14T16:47:13.194Z,48.10
2019-05-14T16:49:43.512Z,47.60
2019-05-14T16:52:13.688Z,48.00
2019-05-14T16:54:43.873Z,47.80
2019-05-14T16:57:14.143Z,47.00
2019-05-14T16:59:44.376Z,47.30
2019-05-14T17:02:14.825Z,46.70
2019-05-14T17:04:45.112Z,48.00
2019-05-14T17:07:18.078Z,47.60
2019-05-14T17:09:49.418Z,47.10
2019-05-14T17:12:22.533Z,47.20
2019-05-14T17:14:51.542Z,46.40
2019-05-14T17:17:21.934Z,46.40
2019-05-14T17:19:52.226Z,46.50
2019-05-14T17:22:28.939Z,47.50
2019-05-14T17:24:54.584Z,48.00
2019-05-14T17:27:24.927Z,48.90
2019-05-14T17:29:55.219Z,48.50
2019-05-14T17:32:25.362Z,49.10
2019-05-14T17:34:55.609Z,49.60
2019-05-14T17:37:28.433Z,50.50
2019-05-14T17:39:58.237Z,49.70
2019-05-14T17:42:28.720Z,50.90
2019-05-14T17:44:59.053Z,49.90
2019-05-14T17:47:29.318Z,49.80
2019-05-14T17:49:59.635Z,48.50
2019-05-14T17:52:30.224Z,48.70
2019-05-14T17:55:00.613Z,48.90
2019-05-14T17:57:35.063Z,48.30
2019-05-14T18:00:03.159Z,49.00
2019-05-14T18:02:33.562Z,47.90
2019-05-14T18:05:04.167Z,48.40
2019-05-14T18:07:34.519Z,48.30
2019-05-14T18:10:05.345Z,48.20
2019-05-14T18:12:35.787Z,48.30
2019-05-14T18:15:08.575Z,48.50
2019-05-14T18:17:39.526Z,48.20
2019-05-14T18:20:09.983Z,48.10
2019-05-14T18:22:42.345Z,48.90
2019-05-14T18:25:12.305Z,48.40
2019-05-14T18:27:42.724Z,48.70
2019-05-14T18:30:13.339Z,49.10
2019-05-14T18:32:43.653Z,48.20
2019-05-14T18:35:13.998Z,47.90
2019-05-14T18:37:44.311Z,47.80
2019-05-14T18:40:14.779Z,48.30
2019-05-14T18:42:45.145Z,48.40
2019-05-14T18:45:15.562Z,47.90
2019-05-14T18:47:48.331Z,48.20
2019-05-14T18:50:19.635Z,47.70
2019-05-14T18:52:50.129Z,47.70
2019-05-14T18:55:20.517Z,48.00
2019-05-14T18:57:50.714Z,49.90
2019-05-14T19:00:21.254Z,48.10
2019-05-14T19:02:51.642Z,47.20
2019-05-14T19:05:21.998Z,48.40
2019-05-14T19:07:52.341Z,48.20
2019-05-14T19:10:22.607Z,48.50
2019-05-14T19:12:52.905Z,47.70
2019-05-14T19:15:23.200Z,47.50
2019-05-14T19:17:53.575Z,48.70
2019-05-14T19:20:23.939Z,47.90
2019-05-14T19:22:54.310Z,48.50
2019-05-14T19:25:24.679Z,48.40
2019-05-14T19:27:54.978Z,50.00
2019-05-14T19:30:25.253Z,50.00
2019-05-14T19:32:55.424Z,49.40
2019-05-14T19:35:28.492Z,49.50
2019-05-14T19:37:59.440Z,49.70
2019-05-14T19:40:30.016Z,50.60
2019-05-14T19:43:00.183Z,51.80
2019-05-14T19:45:30.512Z,49.60
2019-05-14T19:48:00.762Z,50.40
2019-05-14T19:50:31.234Z,50.90
2019-05-14T19:53:01.439Z,50.40
2019-05-14T19:55:32.069Z,51.20
2019-05-14T19:58:02.345Z,51.60
2019-05-14T20:00:32.697Z,50.40
2019-05-14T20:03:02.933Z,51.50
2019-05-14T20:05:33.139Z,49.90
2019-05-14T20:08:05.123Z,50.30
2019-05-14T20:10:35.418Z,50.50
2019-05-14T20:13:05.774Z,50.90
2019-05-14T20:15:36.107Z,49.80
2019-05-14T20:18:08.801Z,49.50
2019-05-14T20:20:38.422Z,50.20
2019-05-14T20:23:08.679Z,49.50
2019-05-14T20:25:39.455Z,51.00
2019-05-14T20:28:09.789Z,52.10
2019-05-14T20:30:40.100Z,52.00
2019-05-14T20:33:10.435Z,51.70
2019-05-14T20:35:40.691Z,51.10
2019-05-14T20:38:10.999Z,51.60
2019-05-14T20:40:41.327Z,52.30
2019-05-14T20:43:11.629Z,53.60
2019-05-14T20:45:42.012Z,53.40
2019-05-14T20:48:12.364Z,53.10
2019-05-14T20:50:42.671Z,52.80
2019-05-14T20:53:12.853Z,53.40
2019-05-14T20:55:43.187Z,54.30
2019-05-14T20:58:13.384Z,51.70
2019-05-14T21:00:43.779Z,53.40
2019-05-14T21:03:13.938Z,53.60
2019-05-14T21:05:44.444Z,52.60
2019-05-14T21:08:14.639Z,54.40
2019-05-14T21:10:44.834Z,53.10
2019-05-14T21:13:15.163Z,54.90
2019-05-14T21:15:45.515Z,54.30
2019-05-14T21:18:15.859Z,52.50
2019-05-14T21:20:48.657Z,53.50
2019-05-14T21:23:18.444Z,53.30
2019-05-14T21:25:48.774Z,52.70
2019-05-14T21:28:19.012Z,55.30
2019-05-14T21:30:49.218Z,54.60
2019-05-14T21:33:19.618Z,53.50
2019-05-14T21:35:49.924Z,52.40
2019-05-14T21:38:20.281Z,55.10
2019-05-14T21:40:50.490Z,57.00
2019-05-14T21:43:20.692Z,53.80
2019-05-14T21:45:50.932Z,54.20
2019-05-14T21:48:21.160Z,53.30
2019-05-14T21:50:51.433Z,54.10
2019-05-14T21:53:21.628Z,52.80
2019-05-14T21:55:51.948Z,56.60
2019-05-14T21:58:22.268Z,56.20
2019-05-14T22:00:54.124Z,55.70
2019-05-14T22:03:24.404Z,54.50
2019-05-14T22:05:54.664Z,54.20
2019-05-14T22:08:25.083Z,54.20
2019-05-14T22:10:55.354Z,55.00
2019-05-14T22:13:25.763Z,54.50
2019-05-14T22:15:55.974Z,53.30
2019-05-14T22:18:27.875Z,54.00
2019-05-14T22:20:58.362Z,53.30
2019-05-14T22:23:29.205Z,53.80
2019-05-14T22:25:59.678Z,53.60
2019-05-14T22:28:29.984Z,54.40
2019-05-14T22:31:00.191Z,52.50
2019-05-14T22:33:30.387Z,52.80
2019-05-14T22:36:00.559Z,53.00
2019-05-14T22:38:30.852Z,52.60
2019-05-14T22:41:01.025Z,53.50
2019-05-14T22:43:31.321Z,53.80
2019-05-14T22:46:01.599Z,57.10
2019-05-14T22:48:31.915Z,53.90
2019-05-14T22:51:02.231Z,54.20
2019-05-14T22:53:32.396Z,56.20
2019-05-14T22:56:02.720Z,56.60
2019-05-14T22:58:32.905Z,53.90
2019-05-14T23:01:14.279Z,54.70
2019-05-14T23:03:35.051Z,54.50
2019-05-14T23:06:05.234Z,58.10
2019-05-14T23:08:35.443Z,55.40
2019-05-14T23:11:05.764Z,55.10
2019-05-14T23:13:35.965Z,55.40
2019-05-14T23:16:08.202Z,55.40
2019-05-14T23:18:38.313Z,54.30
2019-05-14T23:21:09.093Z,54.20
2019-05-14T23:23:39.676Z,53.80
2019-05-14T23:26:09.952Z,54.80
2019-05-14T23:28:45.377Z,54.50
2019-05-14T23:31:12.275Z,55.80
2019-05-14T23:33:42.627Z,54.30
2019-05-14T23:36:12.849Z,54.60
2019-05-14T23:38:43.221Z,54.50
2019-05-14T23:41:13.501Z,54.40
2019-05-14T23:43:43.831Z,55.00
2019-05-14T23:46:14.055Z,55.30
2019-05-14T23:48:44.395Z,55.90
2019-05-14T23:51:14.676Z,54.70
2019-05-14T23:53:44.867Z,55.20
2019-05-14T23:56:15.041Z,54.90
2019-05-14T23:58:54.755Z,54.60
